Time;durP1;ratioP1;P1;durP2;ratioP2;P2;SDS_P1;SDS_P2;PMS_P1;PMS_P2;Temp;Humidity;BMP_temperature;BMP_pressure;BME280_temperature;BME280_humidity;BME280_pressure;Samples;Min_cycle;Max_cycle;Signal;HPM_P1;HPM_P2
2021/08/10 00:01:53;;;;;;;4.50;3.08;;;;;;;28.46;33.20;99613.94;5097650;28;20085;-73
2021/08/10 00:04:19;;;;;;;3.28;2.53;;;;;;;28.30;33.07;99604.41;5097669;28;20020;-74
2021/08/10 00:06:44;;;;;;;4.45;3.50;;;;;;;28.53;33.17;99646.16;5097512;28;20525;-75
2021/08/10 00:09:10;;;;;;;5.32;3.20;;;;;;;28.44;33.42;99646.00;5097632;28;20408;-75
2021/08/10 00:11:35;;;;;;;4.22;2.85;;;;;;;27.96;33.61;99582.00;5097612;28;20020;-72
2021/08/10 00:14:01;;;;;;;5.82;3.38;;;;;;;28.10;33.38;99604.63;5097428;28;20032;-72
2021/08/10 00:16:27;;;;;;;4.15;3.00;;;;;;;28.23;33.81;99627.53;5097645;28;20032;-72
2021/08/10 00:18:53;;;;;;;5.95;3.22;;;;;;;27.91;33.87;99587.50;5097543;28;20028;-74
2021/08/10 00:21:18;;;;;;;5.07;3.03;;;;;;;27.98;34.04;99601.53;5094203;28;20036;-74
2021/08/10 00:23:43;;;;;;;3.95;2.90;;;;;;;28.07;33.84;99622.28;5094202;28;20058;-74
2021/08/10 00:26:09;;;;;;;4.68;2.80;;;;;;;28.02;34.03;99638.66;5094036;28;20041;-74
2021/08/10 00:28:34;;;;;;;3.55;3.00;;;;;;;28.00;34.08;99648.19;5094078;28;20028;-74
2021/08/10 00:31:00;;;;;;;4.90;3.22;;;;;;;27.91;34.25;99655.34;5094299;28;20020;-74
2021/08/10 00:33:25;;;;;;;3.85;3.35;;;;;;;27.84;34.33;99640.22;5093960;28;20455;-73
2021/08/10 00:35:51;;;;;;;4.60;3.58;;;;;;;27.76;34.36;99643.56;5094025;28;20078;-75
2021/08/10 00:38:16;;;;;;;5.20;3.75;;;;;;;27.56;34.38;99623.97;5093917;28;20035;-75
2021/08/10 00:40:42;;;;;;;3.80;3.25;;;;;;;27.64;34.40;99635.03;5092772;28;20032;-73
2021/08/10 00:43:29;;;;;;;5.18;3.25;;;;;;;27.67;34.66;99647.22;5093971;28;20024;-74
2021/08/10 00:45:55;;;;;;;4.15;3.10;;;;;;;27.41;34.60;99612.16;5094033;28;20028;-73
2021/08/10 00:48:20;;;;;;;6.03;3.42;;;;;;;27.55;34.46;99620.44;5093684;28;20047;-74
2021/08/10 00:50:47;;;;;;;5.40;3.35;;;;;;;27.66;34.42;99643.69;5092151;28;20520;-73
2021/08/10 00:53:12;;;;;;;7.22;3.75;;;;;;;27.63;34.47;99638.84;5093746;28;20024;-74
2021/08/10 00:55:38;;;;;;;5.05;3.63;;;;;;;27.58;34.61;99629.91;5093959;28;20043;-74
2021/08/10 00:58:05;;;;;;;3.88;3.35;;;;;;;27.52;34.68;99627.25;5092412;28;20074;-74
2021/08/10 01:00:31;;;;;;;6.63;3.25;;;;;;;27.16;34.70;99569.03;5092217;28;20036;-74
2021/08/10 01:02:56;;;;;;;5.53;3.40;;;;;;;27.52;34.33;99626.44;5093344;28;20086;-74
2021/08/10 01:05:21;;;;;;;5.25;3.45;;;;;;;27.53;34.75;99638.91;5093346;28;20081;-74
2021/08/10 01:07:55;;;;;;;4.28;3.60;;;;;;;27.52;34.95;99621.03;5093349;28;20020;-74
2021/08/10 01:10:28;;;;;;;5.05;3.35;;;;;;;27.50;35.03;99607.75;5093320;28;20063;-74
2021/08/10 01:13:17;;;;;;;5.70;3.67;;;;;;;27.48;35.08;99617.25;5093251;28;20146;-75
2021/08/10 01:15:50;;;;;;;3.45;3.15;;;;;;;27.46;34.86;99622.94;5085231;28;20530;-74
2021/08/10 01:18:25;;;;;;;7.22;3.30;;;;;;;27.46;34.86;99614.00;5093317;28;20024;-75
2021/08/10 01:21:09;;;;;;;4.65;2.88;;;;;;;27.44;34.75;99621.63;5093306;28;20556;-75
2021/08/10 01:23:35;;;;;;;3.35;3.05;;;;;;;27.44;34.71;99621.63;5093333;28;20039;-75
2021/08/10 01:26:30;;;;;;;4.65;3.22;;;;;;;27.34;34.90;99621.72;5093047;28;20449;-75
2021/08/10 01:29:24;;;;;;;6.15;3.80;;;;;;;27.21;35.06;99620.50;5091762;28;20169;-74
2021/08/10 01:31:50;;;;;;;4.63;3.00;;;;;;;26.81;35.23;99562.03;5091868;28;20535;-74
2021/08/10 01:34:24;;;;;;;5.97;3.63;;;;;;;26.80;35.14;99563.94;5092953;28;20424;-74
2021/08/10 01:36:54;;;;;;;7.18;3.30;;;;;;;27.03;35.38;99613.88;5092869;28;20063;-74
2021/08/10 01:39:21;;;;;;;4.85;3.35;;;;;;;26.98;35.53;99605.81;5092810;28;20106;-74
2021/08/10 01:41:48;;;;;;;4.63;3.50;;;;;;;26.63;35.45;99566.22;5092762;28;20488;-74
2021/08/10 01:44:16;;;;;;;9.90;3.45;;;;;;;26.83;35.74;99609.41;5091341;28;20027;-72
2021/08/10 01:46:42;;;;;;;4.90;2.83;;;;;;;26.49;35.70;99566.03;5092888;28;20028;-74
2021/08/10 01:49:09;;;;;;;5.85;3.17;;;;;;;26.39;35.90;99562.59;5092684;28;20503;-72
2021/08/10 01:51:36;;;;;;;4.82;3.08;;;;;;;26.56;35.86;99584.69;5092680;28;20511;-74
2021/08/10 01:54:04;;;;;;;5.18;3.17;;;;;;;26.62;36.07;99607.94;5092602;28;20047;-73
2021/08/10 01:56:30;;;;;;;4.78;3.00;;;;;;;26.19;36.04;99550.78;5092650;28;20064;-72
2021/08/10 01:58:58;;;;;;;5.50;3.38;;;;;;;26.10;36.02;99533.53;5092266;28;20073;-72
2021/08/10 02:01:27;;;;;;;6.35;3.40;;;;;;;26.50;36.06;99602.88;5092228;28;20099;-74
2021/08/10 02:03:54;;;;;;;4.25;2.97;;;;;;;26.51;36.01;99599.06;5092194;28;20412;-74
2021/08/10 02:06:21;;;;;;;7.38;3.35;;;;;;;26.28;36.16;99569.94;5092254;28;20024;-75
2021/08/10 02:08:49;;;;;;;4.13;3.33;;;;;;;26.50;35.94;99605.56;5092064;28;20051;-74
2021/08/10 02:11:16;;;;;;;9.38;3.65;;;;;;;26.43;36.00;99609.69;5091992;28;20023;-75
2021/08/10 02:13:41;;;;;;;6.05;3.50;;;;;;;26.26;36.61;99604.63;5090873;28;20063;-74
2021/08/10 02:16:08;;;;;;;4.55;3.45;;;;;;;26.14;36.54;99607.66;5092134;28;20059;-72
2021/08/10 02:18:35;;;;;;;7.53;3.20;;;;;;;26.06;36.61;99597.41;5091896;28;20020;-75
2021/08/10 02:21:04;;;;;;;6.25;3.22;;;;;;;26.07;36.64;99595.50;5090556;28;20032;-73
2021/08/10 02:23:32;;;;;;;8.50;3.72;;;;;;;26.04;37.03;99598.78;5091970;28;20089;-74
2021/08/10 02:25:58;;;;;;;7.75;3.85;;;;;;;26.12;36.79;99590.06;5091705;28;20412;-74
2021/08/10 02:28:27;;;;;;;6.82;3.58;;;;;;;26.11;36.84;99594.69;5091684;28;20024;-74
2021/08/10 02:30:55;;;;;;;7.03;3.67;;;;;;;26.09;36.77;99593.34;5091637;28;20084;-74
2021/08/10 02:33:24;;;;;;;6.15;4.28;;;;;;;26.06;37.05;99594.72;5091675;28;20035;-74
2021/08/10 02:35:59;;;;;;;6.85;3.75;;;;;;;25.99;37.08;99580.66;5091676;28;20611;-75
2021/08/10 02:38:26;;;;;;;7.97;3.80;;;;;;;26.08;36.76;99602.53;5091411;28;20024;-75
2021/08/10 02:40:56;;;;;;;7.95;4.03;;;;;;;26.07;36.81;99604.44;5090179;28;20028;-74
2021/08/10 02:43:24;;;;;;;7.93;4.18;;;;;;;25.93;36.87;99600.69;5091339;28;20140;-73
2021/08/10 02:45:50;;;;;;;11.55;4.35;;;;;;;25.83;37.18;99611.56;5091673;28;20461;-74
2021/08/10 02:48:15;;;;;;;6.03;3.95;;;;;;;25.84;37.29;99615.88;5091441;28;20032;-74
2021/08/10 02:50:40;;;;;;;6.97;3.88;;;;;;;25.87;37.37;99612.63;5091429;28;20028;-74
2021/08/10 02:53:06;;;;;;;8.48;3.95;;;;;;;25.84;37.18;99607.78;5091499;28;20024;-73
2021/08/10 02:55:37;;;;;;;6.47;4.00;;;;;;;25.84;37.54;99615.88;5091545;28;20408;-75
2021/08/10 02:58:24;;;;;;;;;;;;;;;25.64;37.50;99619.44;5092161;28;20457;-73
2021/08/10 03:00:56;;;;;;;5.95;3.83;;;;;;;25.53;37.47;99569.19;5091669;28;19908;-72
2021/08/10 03:03:26;;;;;;;4.00;3.53;;;;;;;25.78;37.44;99619.69;5091193;28;20070;-74
2021/08/10 03:05:55;;;;;;;7.38;4.55;;;;;;;25.72;37.48;99616.19;5091328;28;20114;-74
2021/08/10 03:08:24;;;;;;;7.53;4.60;;;;;;;25.37;37.56;99571.13;5091231;28;20027;-74
2021/08/10 03:10:51;;;;;;;7.50;4.18;;;;;;;25.68;37.61;99631.34;5091454;28;20081;-74
2021/08/10 03:13:18;;;;;;;8.30;4.43;;;;;;;25.66;37.73;99633.53;5091364;28;20028;-74
2021/08/10 03:15:44;;;;;;;4.00;3.65;;;;;;;25.42;37.83;99613.56;5091221;28;20055;-74
2021/08/10 03:18:14;;;;;;;9.57;4.50;;;;;;;25.54;37.74;99641.09;5091425;28;20028;-74
2021/08/10 03:20:42;;;;;;;6.10;4.65;;;;;;;25.50;37.98;99646.25;5091351;28;20028;-74
2021/08/10 03:23:12;;;;;;;6.82;4.30;;;;;;;25.47;38.10;99643.28;5091407;28;20051;-74
2021/08/10 03:25:39;;;;;;;5.18;4.22;;;;;;;25.28;37.80;99616.81;5091673;28;20039;-74
2021/08/10 03:28:05;;;;;;;8.32;4.20;;;;;;;25.46;38.06;99655.16;5091352;28;20485;-74
2021/08/10 03:30:31;;;;;;;7.68;4.03;;;;;;;25.16;38.13;99599.25;5089989;28;20056;-74
2021/08/10 03:32:59;;;;;;;6.15;3.67;;;;;;;25.41;38.16;99637.06;5091383;28;20185;-74
2021/08/10 03:35:26;;;;;;;6.18;3.55;;;;;;;25.29;38.09;99629.25;5091318;28;20032;-74
2021/08/10 03:37:52;;;;;;;4.55;3.83;;;;;;;25.39;37.99;99638.44;5091197;28;20435;-74
2021/08/10 03:40:18;;;;;;;4.90;3.80;;;;;;;25.45;38.27;99643.53;5090978;28;20028;-74
2021/08/10 03:42:43;;;;;;;4.25;3.78;;;;;;;25.42;38.06;99638.69;5091094;28;20514;-74
2021/08/10 03:45:09;;;;;;;7.93;3.97;;;;;;;25.38;38.05;99634.09;5091073;28;20027;-74
2021/08/10 03:47:37;;;;;;;6.10;4.40;;;;;;;25.34;38.56;99642.75;5089702;28;20489;-74
2021/08/10 03:50:04;;;;;;;6.25;4.75;;;;;;;25.07;38.58;99603.56;5091066;28;20039;-74
2021/08/10 03:52:30;;;;;;;6.25;4.10;;;;;;;24.93;38.62;99605.97;5090979;28;20073;-74
2021/08/10 03:54:55;;;;;;;6.50;4.60;;;;;;;25.18;38.59;99645.72;5091057;28;20032;-74
2021/08/10 03:57:21;;;;;;;9.65;5.13;;;;;;;25.20;38.71;99647.06;5094715;28;20553;-74
2021/08/10 03:59:58;;;;;;;5.35;4.57;;;;;;;25.24;38.52;99650.84;5094590;28;20070;-74
2021/08/10 04:02:24;;;;;;;7.25;5.38;;;;;;;25.25;38.74;99649.75;5093235;28;20081;-74
2021/08/10 04:04:52;;;;;;;6.15;4.72;;;;;;;25.26;38.58;99655.97;5094577;28;20032;-74
2021/08/10 04:07:19;;;;;;;7.00;6.22;;;;;;;25.14;38.78;99637.34;5094488;28;20493;-74
2021/08/10 04:09:44;;;;;;;10.38;6.72;;;;;;;24.91;38.90;99611.66;5094454;28;20542;-75
2021/08/10 04:12:11;;;;;;;8.55;6.03;;;;;;;25.12;38.82;99646.78;5094447;28;20036;-74
2021/08/10 04:14:39;;;;;;;10.45;6.13;;;;;;;25.15;38.90;99649.78;5094591;28;20023;-74
2021/08/10 04:17:05;;;;;;;9.07;5.20;;;;;;;25.18;38.83;99649.22;5093275;28;20027;-74
2021/08/10 04:19:45;;;;;;;10.27;5.40;;;;;;;25.23;38.93;99654.63;5094487;28;20028;-74
2021/08/10 04:22:12;;;;;;;11.00;5.40;;;;;;;25.26;38.90;99653.28;5094487;28;20028;-74
2021/08/10 04:24:37;;;;;;;10.43;5.85;;;;;;;25.22;38.66;99658.41;5094339;28;20124;-74
2021/08/10 04:27:04;;;;;;;8.55;5.80;;;;;;;25.20;39.05;99649.75;5092943;28;20066;-73
2021/08/10 04:29:29;;;;;;;7.85;6.15;;;;;;;25.19;39.37;99653.56;5094519;28;20099;-74
2021/08/10 04:31:55;;;;;;;7.57;5.72;;;;;;;24.90;39.07;99620.03;5094364;28;20034;-74
2021/08/10 04:34:20;;;;;;;10.93;5.85;;;;;;;25.20;39.03;99654.38;5094135;28;20035;-75
2021/08/10 04:36:45;;;;;;;7.35;5.93;;;;;;;25.31;39.28;99664.09;5094210;28;20032;-74
2021/08/10 04:39:11;;;;;;;10.35;6.15;;;;;;;25.34;38.83;99661.69;5093883;28;20020;-74
2021/08/10 04:41:36;;;;;;;10.93;6.05;;;;;;;25.43;39.24;99661.13;5093950;28;20103;-74
2021/08/10 04:44:02;;;;;;;12.13;5.63;;;;;;;25.49;39.09;99655.44;5094029;28;20073;-74
2021/08/10 04:46:27;;;;;;;16.20;5.32;;;;;;;25.47;39.04;99651.38;5093885;28;20027;-74
2021/08/10 04:48:54;;;;;;;10.00;4.78;;;;;;;25.22;38.91;99606.25;5093708;28;20024;-75
2021/08/10 04:51:20;;;;;;;12.55;5.20;;;;;;;25.62;38.67;99662.97;5093943;28;20034;-74
2021/08/10 04:53:46;;;;;;;9.23;4.55;;;;;;;25.56;38.94;99660.56;5093773;28;20028;-75
2021/08/10 04:56:11;;;;;;;8.65;4.32;;;;;;;25.43;39.50;99656.53;5092234;28;20443;-74
2021/08/10 04:58:38;;;;;;;9.20;4.72;;;;;;;25.13;39.37;99603.28;5093660;28;20031;-74
2021/08/10 05:01:04;;;;;;;9.02;4.88;;;;;;;25.56;39.19;99658.66;5093755;28;20024;-74
2021/08/10 05:03:30;;;;;;;12.00;5.50;;;;;;;25.66;39.56;99663.28;5093374;28;20077;-74
2021/08/10 05:05:56;;;;;;;11.80;6.13;;;;;;;25.55;39.51;99627.31;5093077;28;20489;-74
2021/08/10 05:08:21;;;;;;;8.50;5.57;;;;;;;25.48;39.41;99604.34;5093047;28;20024;-74
2021/08/10 05:10:47;;;;;;;7.15;4.97;;;;;;;25.84;39.29;99641.03;5093308;28;20077;-74
2021/08/10 05:13:13;;;;;;;5.53;4.20;;;;;;;26.04;39.20;99648.28;5093136;28;20031;-75
2021/08/10 05:15:39;;;;;;;6.13;4.55;;;;;;;26.15;39.18;99665.28;5093161;28;20537;-75
2021/08/10 05:18:04;;;;;;;7.00;4.88;;;;;;;26.20;39.40;99666.09;5093229;28;20020;-74
2021/08/10 05:20:30;;;;;;;11.57;5.05;;;;;;;25.97;39.24;99621.50;5093442;28;20028;-76
2021/08/10 05:22:55;;;;;;;8.20;5.15;;;;;;;26.35;39.13;99673.34;5092938;28;20020;-74
2021/08/10 05:25:21;;;;;;;10.98;5.80;;;;;;;26.53;39.09;99669.19;5092764;28;20058;-75
2021/08/10 05:27:47;;;;;;;9.73;5.47;;;;;;;26.38;39.01;99617.84;5092656;28;20089;-74
2021/08/10 05:30:13;;;;;;;7.45;5.03;;;;;;;26.81;38.92;99670.41;5092761;28;20024;-74
2021/08/10 05:32:38;;;;;;;7.70;4.80;;;;;;;26.91;38.63;99679.25;5092860;28;20429;-76
2021/08/10 05:35:04;;;;;;;6.45;4.40;;;;;;;26.99;38.73;99677.88;5092932;28;20032;-75
2021/08/10 05:37:30;;;;;;;8.50;5.38;;;;;;;26.94;38.55;99641.84;5092606;28;20059;-75
2021/08/10 05:39:55;;;;;;;6.50;4.93;;;;;;;26.98;38.55;99643.75;5091296;28;20030;-74
2021/08/10 05:42:20;;;;;;;7.35;4.65;;;;;;;27.12;38.57;99652.03;5092794;28;20035;-74
2021/08/10 05:44:46;;;;;;;8.32;4.57;;;;;;;27.37;38.61;99669.97;5092760;28;20085;-74
2021/08/10 05:47:11;;;;;;;8.50;4.50;;;;;;;27.09;38.26;99612.75;5092555;28;20024;-74
2021/08/10 05:49:37;;;;;;;11.05;5.00;;;;;;;27.34;38.57;99643.41;5092514;28;20020;-75
2021/08/10 05:52:03;;;;;;;8.18;4.40;;;;;;;27.51;38.56;99681.78;5092539;28;20032;-72
2021/08/10 05:54:28;;;;;;;6.50;4.80;;;;;;;27.57;38.52;99683.34;5092315;28;20028;-74
2021/08/10 05:56:54;;;;;;;7.63;4.60;;;;;;;27.70;38.58;99690.84;5092319;28;20032;-73
2021/08/10 05:59:19;;;;;;;10.32;5.43;;;;;;;27.59;38.70;99672.22;5092346;28;20020;-75
2021/08/10 06:01:45;;;;;;;6.72;4.95;;;;;;;27.75;38.45;99677.22;5090945;28;20023;-74
2021/08/10 06:04:10;;;;;;;9.15;4.78;;;;;;;27.76;38.24;99659.03;5090819;28;20020;-74
2021/08/10 06:06:36;;;;;;;7.20;4.97;;;;;;;27.96;38.60;99685.94;5092153;28;20023;-74
2021/08/10 06:09:03;;;;;;;9.00;5.00;;;;;;;28.05;38.60;99702.41;5086674;28;20028;-75
2021/08/10 06:11:28;;;;;;;8.15;4.63;;;;;;;27.85;38.76;99663.53;5083333;28;20029;-73
2021/08/10 06:13:54;;;;;;;7.50;4.60;;;;;;;28.14;38.68;99700.66;5084514;28;20488;-73
2021/08/10 06:16:20;;;;;;;7.07;4.47;;;;;;;28.17;38.82;99697.38;5090446;28;20032;-73
2021/08/10 06:18:45;;;;;;;6.75;4.38;;;;;;;28.12;38.57;99675.72;5083663;28;20538;-74
2021/08/10 06:21:11;;;;;;;9.77;4.95;;;;;;;28.34;38.41;99688.81;5071515;28;20085;-74
2021/08/10 06:23:36;;;;;;;10.15;4.03;;;;;;;28.42;38.25;99688.97;5077145;28;20047;-74
2021/08/10 06:26:01;;;;;;;7.55;4.03;;;;;;;28.51;38.09;99685.59;5085084;28;20058;-75
2021/08/10 06:28:27;;;;;;;4.15;3.35;;;;;;;28.52;38.06;99665.47;5079693;28;20031;-74
2021/08/10 06:30:52;;;;;;;5.22;3.30;;;;;;;28.41;37.90;99654.75;5089155;28;20499;-74
2021/08/10 06:33:19;;;;;;;4.97;3.45;;;;;;;28.74;37.80;99685.50;5091763;28;20051;-75
2021/08/10 06:35:44;;;;;;;4.07;3.13;;;;;;;28.78;37.82;99685.72;5100546;28;20416;-74
2021/08/10 06:38:10;;;;;;;4.82;2.92;;;;;;;28.85;37.58;99691.63;5092961;28;20097;-74
2021/08/10 06:40:35;;;;;;;5.93;3.17;;;;;;;28.68;37.31;99662.22;5097745;28;20089;-77
2021/08/10 06:43:00;;;;;;;5.65;3.40;;;;;;;28.71;37.51;99655.41;5107392;28;20027;-79
2021/08/10 06:45:26;;;;;;;6.13;3.20;;;;;;;28.76;37.52;99652.59;5083209;28;20532;-78
2021/08/10 06:47:52;;;;;;;6.00;2.97;;;;;;;29.08;36.99;99690.75;5081127;28;20089;-79
2021/08/10 06:50:18;;;;;;;5.50;3.30;;;;;;;28.68;36.86;99615.22;5071797;28;20112;-80
2021/08/10 06:52:44;;;;;;;8.02;3.45;;;;;;;28.97;36.65;99651.22;5072256;28;20094;-79
2021/08/10 06:55:10;;;;;;;4.45;3.20;;;;;;;29.32;36.79;99695.25;5081410;28;20024;-79
2021/08/10 06:57:38;;;;;;;6.03;3.53;;;;;;;29.41;36.71;99688.03;5090543;28;20020;-81
2021/08/10 07:00:04;;;;;;;5.57;3.55;;;;;;;29.33;36.59;99658.78;5077358;28;20035;-80
2021/08/10 07:02:29;;;;;;;5.00;3.88;;;;;;;29.59;36.74;99681.75;5074138;28;20035;-79
2021/08/10 07:04:55;;;;;;;5.30;3.38;;;;;;;29.40;36.63;99634.72;5077111;28;20019;-78
2021/08/10 07:07:20;;;;;;;4.00;3.15;;;;;;;29.52;36.58;99642.44;5087130;28;21610;-79
2021/08/10 07:09:45;;;;;;;4.43;3.35;;;;;;;29.85;35.97;99684.00;5078524;28;20024;-79
2021/08/10 07:12:11;;;;;;;3.78;3.30;;;;;;;29.60;35.90;99630.84;5091077;28;20473;-78
2021/08/10 07:14:36;;;;;;;7.38;5.00;;;;;;;29.77;35.70;99644.69;5090941;28;20027;-79
2021/08/10 07:17:02;;;;;;;4.28;3.63;;;;;;;29.70;35.18;99623.28;5083179;28;20028;-79
2021/08/10 07:19:27;;;;;;;6.00;3.20;;;;;;;30.08;35.36;99674.84;5088611;28;20055;-79
2021/08/10 07:21:53;;;;;;;4.03;3.15;;;;;;;29.96;35.49;99639.13;5083391;28;20118;-78
2021/08/10 07:24:19;;;;;;;3.63;2.90;;;;;;;30.20;35.19;99661.53;5090031;28;20519;-73
2021/08/10 07:26:45;;;;;;;4.30;3.13;;;;;;;30.13;35.03;99639.34;5077174;28;20032;-74
2021/08/10 07:29:10;;;;;;;4.57;3.60;;;;;;;30.32;34.39;99664.53;5071155;28;20098;-74
2021/08/10 07:31:36;;;;;;;5.70;3.20;;;;;;;29.75;34.43;99556.28;5080833;28;20031;-74
2021/08/10 07:34:01;;;;;;;4.47;3.53;;;;;;;30.45;34.66;99667.53;5084935;28;20396;-73
2021/08/10 07:36:26;;;;;;;5.82;3.20;;;;;;;30.50;34.47;99645.66;5076152;28;20023;-74
2021/08/10 07:38:52;;;;;;;4.80;3.40;;;;;;;30.49;33.74;99633.94;5089303;28;20489;-74
2021/08/10 07:41:17;;;;;;;6.00;3.85;;;;;;;30.69;34.11;99651.78;5091782;28;20098;-74
2021/08/10 07:43:43;;;;;;;4.45;3.58;;;;;;;30.76;33.67;99648.63;5074456;28;20082;-74
2021/08/10 07:46:09;;;;;;;5.30;3.55;;;;;;;30.63;33.62;99623.03;5077442;28;20028;-73
2021/08/10 07:48:35;;;;;;;13.60;4.70;;;;;;;30.85;33.13;99644.03;5074299;28;20028;-74
2021/08/10 07:51:01;;;;;;;7.32;3.67;;;;;;;30.88;33.59;99637.97;5077865;28;20024;-74
2021/08/10 07:53:26;;;;;;;5.70;3.45;;;;;;;30.70;33.20;99601.59;5090916;28;20141;-76
2021/08/10 07:55:52;;;;;;;6.45;4.30;;;;;;;30.91;32.92;99610.88;5093425;28;20031;-74
2021/08/10 07:58:18;;;;;;;6.53;3.80;;;;;;;31.14;33.16;99630.75;5094454;28;20120;-74
2021/08/10 08:00:44;;;;;;;6.28;3.95;;;;;;;31.24;32.55;99629.75;5091023;28;20039;-75
2021/08/10 08:03:12;;;;;;;6.13;3.67;;;;;;;31.34;32.40;99628.66;5091040;28;20409;-74
2021/08/10 08:05:38;;;;;;;5.18;3.20;;;;;;;31.12;32.41;99583.91;5089174;28;20020;-74
2021/08/10 08:08:04;;;;;;;5.60;4.25;;;;;;;31.25;31.90;99576.78;5079633;28;20031;-75
2021/08/10 08:10:30;;;;;;;6.22;3.47;;;;;;;31.71;31.77;99632.88;5092214;28;20420;-74
2021/08/10 08:12:55;;;;;;;4.15;3.30;;;;;;;31.82;31.70;99626.81;5084537;28;20039;-75
2021/08/10 08:15:21;;;;;;;8.30;3.17;;;;;;;31.89;31.32;99626.34;5095050;28;20019;-75
2021/08/10 08:17:47;;;;;;;5.95;3.63;;;;;;;32.03;31.31;99637.16;5095733;28;20504;-75
2021/08/10 08:20:13;;;;;;;3.90;3.08;;;;;;;32.11;30.94;99641.84;5078875;28;20040;-74
2021/08/10 08:22:38;;;;;;;10.75;3.47;;;;;;;31.87;30.85;99582.16;5088576;28;20492;-74
2021/08/10 08:25:05;;;;;;;5.20;3.50;;;;;;;32.38;30.80;99641.59;5097768;28;20016;-75
2021/08/10 08:27:30;;;;;;;10.32;3.75;;;;;;;32.38;30.59;99635.31;5093940;28;20508;-75
2021/08/10 08:29:56;;;;;;;3.58;2.95;;;;;;;32.40;30.17;99638.53;5093696;28;20051;-74
2021/08/10 08:32:21;;;;;;;7.57;3.70;;;;;;;32.25;30.10;99614.41;5091085;28;20039;-75
2021/08/10 08:34:46;;;;;;;7.63;4.40;;;;;;;32.47;30.27;99633.41;5091359;28;20067;-74
2021/08/10 08:37:13;;;;;;;4.43;3.28;;;;;;;32.16;30.58;99592.53;5097719;28;20510;-75
2021/08/10 08:39:39;;;;;;;5.28;3.97;;;;;;;32.46;30.68;99637.25;5082663;28;20016;-75
2021/08/10 08:42:04;;;;;;;8.43;6.32;;;;;;;32.57;30.45;99621.34;5081964;28;20016;-74
2021/08/10 08:44:36;;;;;;;6.97;3.95;;;;;;;32.71;30.11;99631.00;5091271;28;20051;-75
2021/08/10 08:47:07;;;;;;;6.45;3.80;;;;;;;32.55;29.77;99565.06;5095078;28;20030;-75
2021/08/10 08:49:35;;;;;;;5.20;3.58;;;;;;;33.07;29.31;99625.19;5105306;28;20024;-76
2021/08/10 08:52:03;;;;;;;5.20;3.83;;;;;;;33.23;29.19;99621.94;5094179;28;20101;-76
2021/08/10 08:54:31;;;;;;;6.13;4.93;;;;;;;33.11;28.49;99582.38;5083386;28;20051;-76
2021/08/10 08:56:56;;;;;;;8.32;4.75;;;;;;;33.44;27.88;99629.16;5109968;28;20488;-76
2021/08/10 08:59:23;;;;;;;7.18;4.38;;;;;;;33.52;27.68;99618.50;5092286;28;20023;-75
2021/08/10 09:01:52;;;;;;;8.60;4.85;;;;;;;33.63;27.64;99620.56;5079982;28;20028;-75
2021/08/10 09:04:18;;;;;;;6.30;4.50;;;;;;;33.73;27.39;99619.38;5087663;28;20402;-75
2021/08/10 09:06:44;;;;;;;5.88;3.92;;;;;;;33.92;27.39;99619.78;5100237;28;20107;-73
2021/08/10 09:09:27;;;;;;;6.78;4.60;;;;;;;34.09;27.83;99611.44;5102747;28;20106;-75
2021/08/10 09:11:58;;;;;;;5.70;4.07;;;;;;;34.22;27.38;99608.81;5104964;28;20100;-75
2021/08/10 09:14:25;;;;;;;9.00;4.55;;;;;;;34.30;27.39;99605.19;5099590;28;20103;-76
2021/08/10 09:17:09;;;;;;;7.20;3.60;;;;;;;34.42;27.20;99608.03;5093695;28;20028;-72
2021/08/10 09:19:47;;;;;;;6.97;4.30;;;;;;;34.52;26.85;99598.59;5083238;28;20089;-75
2021/08/10 09:22:14;;;;;;;6.55;4.20;;;;;;;34.67;26.45;99604.25;5096055;28;20028;-74
2021/08/10 09:24:57;;;;;;;5.25;3.40;;;;;;;34.85;26.74;99599.44;5088372;28;20024;-74
2021/08/10 09:27:38;;;;;;;4.28;3.88;;;;;;;34.94;26.21;99597.44;5096139;28;20032;-74
2021/08/10 09:30:05;;;;;;;4.78;3.33;;;;;;;34.98;25.76;99589.34;5088605;28;20031;-75
2021/08/10 09:32:31;;;;;;;6.75;3.92;;;;;;;35.19;25.92;99587.31;5086316;28;20028;-75
2021/08/10 09:35:13;;;;;;;6.93;4.07;;;;;;;35.42;25.41;99578.66;5086152;28;20346;-74
2021/08/10 09:37:39;;;;;;;5.70;4.70;;;;;;;35.51;25.45;99571.91;5088904;28;20496;-74
2021/08/10 09:40:38;;;;;;;5.85;3.85;;;;;;;35.83;25.55;99573.00;5085990;28;20027;-75
2021/08/10 09:43:24;;;;;;;7.50;3.65;;;;;;;36.07;25.44;99583.13;5089657;28;20024;-74
2021/08/10 09:45:49;;;;;;;6.85;3.92;;;;;;;36.17;24.23;99570.84;5087013;28;20082;-73
2021/08/10 09:48:16;;;;;;;4.28;3.33;;;;;;;36.09;23.97;99558.03;5085054;28;20472;-74
2021/08/10 09:50:42;;;;;;;4.88;4.00;;;;;;;36.44;24.12;99575.63;5106422;27;20493;-75
2021/08/10 09:53:19;;;;;;;6.65;4.22;;;;;;;36.53;23.77;99562.53;5097137;28;20027;-76
2021/08/10 09:55:55;;;;;;;5.50;3.55;;;;;;;36.63;23.77;99565.91;5097713;28;20108;-75
2021/08/10 09:58:21;;;;;;;6.88;3.50;;;;;;;36.70;23.45;99557.84;5091156;28;20016;-74
2021/08/10 10:00:46;;;;;;;8.27;3.70;;;;;;;36.69;23.00;99551.56;5091419;28;20027;-75
2021/08/10 10:03:20;;;;;;;4.72;3.78;;;;;;;36.68;22.81;99527.16;5089783;28;20025;-73
2021/08/10 10:05:46;;;;;;;7.88;4.70;;;;;;;37.00;23.20;99564.59;5097652;28;20027;-74
2021/08/10 10:08:14;;;;;;;7.13;4.60;;;;;;;37.21;23.25;99573.41;5079235;28;20104;-75
2021/08/10 10:10:40;;;;;;;5.25;4.63;;;;;;;37.47;22.65;99566.59;5078670;28;20032;-75
2021/08/10 10:13:05;;;;;;;8.50;5.47;;;;;;;37.65;22.54;99561.50;5097570;28;20489;-74
2021/08/10 10:15:31;;;;;;;4.47;4.07;;;;;;;37.43;22.13;99503.16;5085410;28;20027;-76
2021/08/10 10:17:57;;;;;;;6.15;4.70;;;;;;;37.75;21.54;99527.91;5087691;28;20100;-75
2021/08/10 10:20:24;;;;;;;8.65;6.75;;;;;;;38.09;22.00;99548.34;5088251;28;20020;-75
2021/08/10 10:22:51;;;;;;;7.03;6.30;;;;;;;38.20;21.20;99554.91;5088963;28;20515;-75
2021/08/10 10:25:16;;;;;;;5.13;3.95;;;;;;;38.03;20.97;99500.97;5087733;28;20035;-77
2021/08/10 10:27:43;;;;;;;7.53;4.47;;;;;;;38.33;20.57;99545.34;5090340;28;20480;-78
2021/08/10 10:30:09;;;;;;;5.68;4.20;;;;;;;38.35;20.41;99550.50;5089772;28;20028;-78
2021/08/10 10:32:34;;;;;;;5.38;4.40;;;;;;;38.12;20.47;99487.78;5072824;28;20092;-77
2021/08/10 10:35:00;;;;;;;6.05;5.30;;;;;;;38.57;20.58;99540.66;5090702;28;20028;-79
2021/08/10 10:37:28;;;;;;;5.28;4.50;;;;;;;38.72;20.09;99526.81;5088875;28;20024;-80
2021/08/10 10:40:03;;;;;;;6.18;4.20;;;;;;;38.98;19.58;99534.38;5078776;28;20027;-79
2021/08/10 10:42:29;;;;;;;5.50;4.75;;;;;;;39.18;19.53;99526.06;5088895;28;20125;-79
2021/08/10 10:44:54;;;;;;;7.15;4.47;;;;;;;39.24;19.56;99519.84;5108461;28;20027;-78
2021/08/10 10:47:20;;;;;;;5.70;3.90;;;;;;;39.27;19.01;99523.81;5091956;28;20400;-78
2021/08/10 10:50:06;;;;;;;5.75;4.38;;;;;;;39.29;19.29;99521.50;5084887;28;20035;-79
2021/08/10 10:52:34;;;;;;;10.52;7.25;;;;;;;39.33;19.44;99520.38;5064035;28;20039;-79
2021/08/10 10:55:01;;;;;;;11.23;5.10;;;;;;;39.52;19.35;99518.75;5089807;28;20041;-78
2021/08/10 10:57:32;;;;;;;5.03;4.53;;;;;;;39.63;18.45;99512.19;5086850;28;20034;-78
2021/08/10 11:00:20;;;;;;;6.55;4.60;;;;;;;39.71;18.68;99515.84;5076390;28;20044;-80
2021/08/10 11:03:09;;;;;;;7.30;4.93;;;;;;;39.94;18.03;99507.50;5074604;28;20020;-79
2021/08/10 11:05:35;;;;;;;7.72;5.93;;;;;;;40.06;18.56;99509.22;5090561;28;20027;-79
2021/08/10 11:08:00;;;;;;;6.22;5.63;;;;;;;40.04;17.78;99506.81;5090776;28;20027;-79
2021/08/10 11:10:45;;;;;;;7.10;5.65;;;;;;;40.10;18.06;99496.22;5089847;28;20514;-80
2021/08/10 11:13:16;;;;;;;5.80;5.07;;;;;;;40.28;17.67;99497.25;5086289;28;20491;-78
2021/08/10 11:15:45;;;;;;;7.47;4.78;;;;;;;40.40;16.92;99485.97;5089345;28;20545;-79
2021/08/10 11:18:10;;;;;;;7.50;5.38;;;;;;;40.53;17.36;99483.72;5088399;28;20027;-78
2021/08/10 11:20:43;;;;;;;5.55;5.05;;;;;;;40.56;17.48;99488.47;5075524;28;20035;-78
2021/08/10 11:23:31;;;;;;;6.63;5.50;;;;;;;40.66;17.55;99485.03;5090286;28;20497;-78
2021/08/10 11:25:59;;;;;;;9.88;5.15;;;;;;;40.76;17.16;99478.78;5090511;28;20032;-78
2021/08/10 11:28:33;;;;;;;4.95;4.53;;;;;;;40.52;16.69;99437.84;5090546;28;20031;-78
2021/08/10 11:31:08;;;;;;;5.45;4.28;;;;;;;40.84;16.81;99482.44;5089557;28;20052;-78
2021/08/10 11:33:34;;;;;;;4.85;4.20;;;;;;;40.95;16.53;99477.81;5088065;28;20552;-78
2021/08/10 11:36:12;;;;;;;6.15;4.40;;;;;;;41.08;16.35;99473.56;5088655;28;20062;-79
2021/08/10 11:38:43;;;;;;;4.63;3.75;;;;;;;41.12;16.08;99471.59;5089251;28;20021;-79